Base ULM du Burgaud

FR-0423 · Tarn-et-Garonne, Occitanie, França

História da METAR FR-0423 · Base ULM du Burgaud

Abaixo você vê METARs dos últimos dias. Selecione um ano para navegar pelos METARs mais antigos, a partir do ano 2007.

8 de dezembro de 2022

Hora Código Clima Temp. Visibilidade Tecto Vento METAR/SPECI
00:00
I
4 °C 4,9 km - 180° 180° 3 kt METAR LFBO 072300Z AUTO 18003KT 4900 BR NSC 04/02 Q1011 BECMG 9999 NSW

7 de dezembro de 2022

Hora Código Clima Temp. Visibilidade Tecto Vento METAR/SPECI
23:30
M
4 °C 6 km - 150° 150° 2 kt METAR LFBO 072230Z AUTO 15002KT 6000 NSC 04/03 Q1011 NOSIG
23:00
V
4 °C 8 km - 170° 170° 2 kt METAR LFBO 072200Z AUTO 17002KT 8000 NSC 04/01 Q1012 NOSIG
22:30
V
4 °C 9 km - 330° 330° 2 kt METAR LFBO 072130Z AUTO 33002KT 9000 NSC 04/02 Q1012 NOSIG
22:00
V
5 °C 9 km - Var 000° 0 kt METAR LFBO 072100Z AUTO 00000KT 9000 NSC 05/02 Q1012 NOSIG
21:30
V
7 °C 10 km+ - 320° 320° 2 kt METAR LFBO 072030Z AUTO 32002KT CAVOK 07/02 Q1012 NOSIG
21:00
V
6 °C 10 km+ - 310° 310° 2 kt METAR LFBO 072000Z AUTO 31002KT CAVOK 06/01 Q1012 NOSIG
20:30
V
7 °C 10 km+ - 320° 320° 3 kt METAR LFBO 071930Z AUTO 32003KT CAVOK 07/02 Q1012 NOSIG
20:00
V
7 °C 10 km+ - Var Var 2 kt METAR LFBO 071900Z AUTO VRB02KT CAVOK 07/03 Q1012 NOSIG
19:30
V
8 °C 10 km+ - Var Var 2 kt METAR LFBO 071830Z AUTO VRB02KT CAVOK 08/03 Q1012 NOSIG
19:00
V
9 °C 10 km+ - 010° 010° 1 kt METAR LFBO 071800Z AUTO 01001KT CAVOK 09/04 Q1012 NOSIG
18:30
V
9 °C 10 km+ - 020° 020° 2 kt METAR LFBO 071730Z AUTO 02002KT CAVOK 09/04 Q1012 BECMG BKN013
18:00
V
10 °C 10 km+ - Var 000° 0 kt METAR LFBO 071700Z AUTO 00000KT CAVOK 10/04 Q1012 BECMG BKN013
17:30
V
11 °C 10 km+ - Var Var 1 kt METAR LFBO 071630Z AUTO VRB01KT CAVOK 11/05 Q1012 BECMG BKN013
17:00
V
12 °C 10 km+ - Var Var 2 kt METAR LFBO 071600Z AUTO VRB02KT CAVOK 12/05 Q1013 NOSIG
16:30
I
12 °C 4,3 km - Var Var 3 kt METAR LFBO 071530Z AUTO VRB03KT 9999 4300 NSC 12/04 Q1013 NOSIG
16:00
V
13 °C 10 km+ - 350° 350° 4 kt METAR LFBO 071500Z AUTO 35004KT CAVOK 13/05 Q1013 NOSIG
15:30
V
13 °C 10 km+ - 330° 330° 4 kt METAR LFBO 071430Z AUTO 33004KT 300V010 CAVOK 13/05 Q1013 NOSIG
15:00
V
13 °C 10 km+ - 010° 010° 4 kt METAR LFBO 071400Z AUTO 01004KT 320V050 CAVOK 13/04 Q1013 NOSIG
14:30
V
13 °C 10 km+ - 010° 010° 4 kt METAR LFBO 071330Z AUTO 01004KT 330V060 CAVOK 13/04 Q1014 NOSIG
14:00
V
13 °C 10 km+ - 330° 330° 5 kt METAR LFBO 071300Z AUTO 33005KT 300V020 CAVOK 13/05 Q1014 NOSIG
13:30
V
13 °C 10 km+ - Var Var 2 kt METAR LFBO 071230Z AUTO VRB02KT CAVOK 13/04 Q1014 NOSIG
13:00
V
12 °C 10 km+ - Var Var 3 kt METAR LFBO 071200Z AUTO VRB03KT CAVOK 12/03 Q1014 NOSIG
12:30
V
12 °C 10 km+ - 310° 310° 3 kt METAR LFBO 071130Z AUTO 31003KT 250V360 9999 FEW012 12/03 Q1015 NOSIG
12:00
V
11 °C 10 km+ - Var Var 3 kt METAR LFBO 071100Z AUTO VRB03KT CAVOK 11/04 Q1015 NOSIG
11:30
V
11 °C 10 km+ - Var Var 3 kt METAR LFBO 071030Z AUTO VRB03KT CAVOK 11/04 Q1016 NOSIG
11:00
V
10 °C 10 km+ - 330° 330° 3 kt METAR LFBO 071000Z AUTO 33003KT 300V360 CAVOK 10/04 Q1016 NOSIG
10:30
V
10 °C 10 km+ - 020° 020° 1 kt METAR LFBO 070930Z AUTO 02001KT CAVOK 10/04 Q1016 NOSIG
10:00
V
9 °C 10 km+ - 020° 020° 3 kt METAR LFBO 070900Z AUTO 02003KT CAVOK 09/04 Q1016 NOSIG
09:30
V
8 °C 10 km+ - 360° 360° 3 kt METAR LFBO 070830Z AUTO 36003KT CAVOK 08/04 Q1016 NOSIG
09:00
V
7 °C 10 km+ - Var 000° 0 kt METAR LFBO 070800Z AUTO 00000KT CAVOK 07/05 Q1016 NOSIG
08:30
V
7 °C 10 km+ 7.200 ft Var 000° 0 kt METAR LFBO 070730Z AUTO 00000KT 9999 SCT049 OVC072 07/04 Q1015 NOSIG
08:00
V
7 °C 10 km+ - 200° 200° 1 kt METAR LFBO 070700Z AUTO 20001KT CAVOK 07/05 Q1015 NOSIG
07:30
V
7 °C 10 km+ - Var 000° 0 kt METAR LFBO 070630Z AUTO 00000KT CAVOK 07/05 Q1015 NOSIG
07:00
V
7 °C 10 km+ - Var Var 1 kt METAR LFBO 070600Z AUTO VRB01KT CAVOK 07/05 Q1015 NOSIG
06:30
V
7 °C 10 km+ 6.400 ft Var Var 2 kt METAR LFBO 070530Z AUTO VRB02KT 9999 FEW018 OVC064 07/05 Q1015 NOSIG
06:00
V
7 °C 10 km+ - 180° 180° 2 kt METAR LFBO 070500Z AUTO 18002KT CAVOK 07/05 Q1016 NOSIG
05:30
V
7 °C 10 km+ - 160° 160° 1 kt METAR LFBO 070430Z AUTO 16001KT CAVOK 07/05 Q1015 NOSIG
05:00
V
7 °C 10 km+ - Var 000° 0 kt METAR LFBO 070400Z AUTO 00000KT CAVOK 07/05 Q1016 NOSIG
04:30
V
7 °C 10 km+ - Var Var 2 kt METAR LFBO 070330Z AUTO VRB02KT CAVOK 07/05 Q1016 NOSIG
04:00
V
7 °C 10 km+ - 180° 180° 2 kt METAR LFBO 070300Z AUTO 18002KT CAVOK 07/05 Q1016 NOSIG
03:30
V
7 °C 10 km+ - 170° 170° 2 kt METAR LFBO 070230Z AUTO 17002KT CAVOK 07/05 Q1016 NOSIG
03:00
V
7 °C 10 km+ - 200° 200° 3 kt METAR LFBO 070200Z AUTO 20003KT CAVOK 07/04 Q1016 NOSIG
02:30
V
7 °C 10 km+ - Var Var 2 kt METAR LFBO 070130Z AUTO VRB02KT CAVOK 07/05 Q1016 NOSIG
02:00
V
8 °C 10 km+ - 320° 320° 2 kt METAR LFBO 070100Z AUTO 32002KT CAVOK 08/05 Q1016 NOSIG
01:30
V
8 °C 10 km+ 6.000 ft Var Var 1 kt METAR LFBO 070030Z AUTO VRB01KT 9999 FEW048 BKN060 OVC070 08/05 Q1016 NOSIG
01:00
V
8 °C 8 km 6.000 ft Var Var 1 kt METAR LFBO 070000Z AUTO VRB01KT 8000 FEW049 BKN060 OVC078 08/05 Q1016 NOSIG
00:30
V
8 °C 8 km - Var Var 2 kt METAR LFBO 062330Z AUTO VRB02KT 8000 NSC 08/04 Q1017 NOSIG
00:00
V
8 °C 9 km - 360° 360° 2 kt METAR LFBO 062300Z AUTO 36002KT 9000 NSC 08/04 Q1017 NOSIG

6 de dezembro de 2022

Hora Código Clima Temp. Visibilidade Tecto Vento METAR/SPECI
23:30
V
8 °C 9 km - Var Var 2 kt METAR LFBO 062230Z AUTO VRB02KT 9000 NSC 08/04 Q1017 NOSIG
23:00
V
8 °C 10 km+ - 020° 020° 2 kt METAR LFBO 062200Z AUTO 02002KT CAVOK 08/05 Q1016 NOSIG
22:30
V
8 °C 10 km+ - Var 000° 0 kt METAR LFBO 062130Z AUTO 00000KT CAVOK 08/04 Q1016 NOSIG
22:00
V
9 °C 10 km+ - 030° 030° 1 kt METAR LFBO 062100Z AUTO 03001KT CAVOK 09/03 Q1016 NOSIG
21:30
V
9 °C 10 km+ - Var 000° 0 kt METAR LFBO 062030Z AUTO 00000KT CAVOK 09/03 Q1016 NOSIG
21:00
V
8 °C 10 km+ - 210° 210° 1 kt METAR LFBO 062000Z AUTO 21001KT CAVOK 08/03 Q1016 NOSIG
20:30
V
9 °C 10 km+ - 330° 330° 2 kt METAR LFBO 061930Z AUTO 33002KT CAVOK 09/04 Q1016 NOSIG
20:00
V
9 °C 10 km+ - Var 000° 0 kt METAR LFBO 061900Z AUTO 00000KT CAVOK 09/04 Q1016 NOSIG
19:30
V
9 °C 10 km+ - Var Var 2 kt METAR LFBO 061830Z AUTO VRB02KT CAVOK 09/04 Q1016 NOSIG
19:00
V
9 °C 10 km+ - Var 000° 0 kt METAR LFBO 061800Z AUTO 00000KT 9999 ///TCU 09/03 Q1016 BECMG NSC
18:30
V
9 °C 10 km+ - 300° 300° 4 kt METAR LFBO 061730Z AUTO 30004KT 240V320 CAVOK 09/03 Q1016 NOSIG
18:00
V
9 °C 10 km+ - 320° 320° 3 kt METAR LFBO 061700Z AUTO 32003KT CAVOK 09/03 Q1016 NOSIG
17:30
V
10 °C 10 km+ - Var Var 3 kt METAR LFBO 061630Z AUTO VRB03KT CAVOK 10/03 Q1016 NOSIG
17:00
V
10 °C 10 km+ - 010° 010° 2 kt METAR LFBO 061600Z AUTO 01002KT CAVOK 10/02 Q1016 NOSIG
16:30
V
10 °C 10 km+ - 360° 360° 4 kt METAR LFBO 061530Z AUTO 36004KT CAVOK 10/02 Q1015 NOSIG
16:00
V
11 °C 10 km+ - 010° 010° 3 kt METAR LFBO 061500Z AUTO 01003KT 9999 //////TCU 11/03 Q1015 BECMG NSC
15:30
V
11 °C 10 km+ - 340° 340° 4 kt METAR LFBO 061430Z AUTO 34004KT 9999 //////TCU 11/03 Q1015 BECMG NSC
15:00
V
12 °C 10 km+ 14.000 ft Var Var 2 kt METAR LFBO 061400Z AUTO VRB02KT 9999 FEW013/// BKN140/// BKN160/// //////CB 12/03 Q1015 BECMG NSC
14:30
V
12 °C 10 km+ 14.000 ft Var Var 1 kt METAR LFBO 061330Z AUTO VRB01KT 9999 FEW012 OVC140 12/02 Q1015 NOSIG
14:00
V
12 °C 10 km+ - Var Var 2 kt METAR LFBO 061300Z AUTO VRB02KT CAVOK 12/02 Q1015 NOSIG
13:30
V
13 °C 10 km+ - Var Var 2 kt METAR LFBO 061230Z AUTO VRB02KT CAVOK 13/03 Q1016 NOSIG
13:00
V
11 °C 10 km+ - 100° 100° 3 kt METAR LFBO 061200Z AUTO 10003KT 040V140 CAVOK 11/02 Q1016 NOSIG
12:30
V
10 °C 10 km+ 16.000 ft 080° 080° 3 kt METAR LFBO 061130Z AUTO 08003KT 040V120 9999 FEW013 SCT100 BKN160 10/02 Q1016 NOSIG
12:00
V
9 °C 10 km+ - 040° 040° 3 kt METAR LFBO 061100Z AUTO 04003KT CAVOK 09/03 Q1016 NOSIG
11:30
V
7 °C 10 km+ - Var Var 3 kt METAR LFBO 061030Z AUTO VRB03KT CAVOK 07/02 Q1017 NOSIG
11:00
V
7 °C 10 km+ - Var Var 3 kt METAR LFBO 061000Z AUTO VRB03KT CAVOK 07/02 Q1017 NOSIG
10:30
V
7 °C 10 km+ - Var Var 1 kt METAR LFBO 060930Z AUTO VRB01KT CAVOK 07/02 Q1017 NOSIG
10:00
V
6 °C 10 km+ - 030° 030° 2 kt METAR LFBO 060900Z AUTO 03002KT CAVOK 06/02 Q1016 NOSIG
09:30
V
5 °C 10 km+ 12.000 ft Var Var 2 kt METAR LFBO 060830Z AUTO VRB02KT 9999 FEW007 BKN120 BKN190 05/02 Q1016 NOSIG
09:00
V
5 °C 10 km+ - Var 000° 0 kt METAR LFBO 060800Z AUTO 00000KT CAVOK 05/02 Q1016 NOSIG
08:30
V
5 °C 10 km+ - 100° 100° 2 kt METAR LFBO 060730Z AUTO 10002KT CAVOK 05/02 Q1016 NOSIG
08:00
V
5 °C 10 km+ - Var Var 2 kt METAR LFBO 060700Z AUTO VRB02KT CAVOK 05/01 Q1016 NOSIG
07:30
V
5 °C 10 km+ 15.000 ft Var Var 2 kt METAR LFBO 060630Z AUTO VRB02KT 9999 FEW008 SCT110 BKN150 05/01 Q1016 NOSIG
07:00
V
5 °C 10 km+ 10.000 ft Var Var 2 kt METAR LFBO 060600Z AUTO VRB02KT 9999 FEW008 OVC100 05/02 Q1015 NOSIG
06:30
V
5 °C 10 km+ - 050° 050° 4 kt METAR LFBO 060530Z AUTO 05004KT CAVOK 05/02 Q1015 NOSIG
06:00
V
5 °C 10 km+ - Var Var 2 kt METAR LFBO 060500Z AUTO VRB02KT CAVOK 05/02 Q1015 NOSIG
05:30
V
5 °C 10 km+ - 300° 300° 1 kt METAR LFBO 060430Z AUTO 30001KT CAVOK 05/02 Q1015 NOSIG
05:00
V
5 °C 10 km+ - 090° 090° 3 kt METAR LFBO 060400Z AUTO 09003KT CAVOK 05/02 Q1016 NOSIG
04:30
V
3 °C 10 km+ - Var 000° 0 kt METAR LFBO 060330Z AUTO 00000KT CAVOK 03/02 Q1016 NOSIG
04:00
V
3 °C 10 km+ - 210° 210° 1 kt METAR LFBO 060300Z AUTO 21001KT CAVOK 03/01 Q1016 NOSIG
03:30
V
4 °C 10 km+ - Var Var 2 kt METAR LFBO 060230Z AUTO VRB02KT CAVOK 04/01 Q1016 NOSIG
03:00
V
4 °C 10 km+ - Var 000° 0 kt METAR LFBO 060200Z AUTO 00000KT CAVOK 04/02 Q1016 NOSIG
02:30
V
4 °C 10 km+ - 310° 310° 2 kt METAR LFBO 060130Z AUTO 31002KT CAVOK 04/02 Q1016 NOSIG
02:00
V
5 °C 10 km+ - Var 000° 0 kt METAR LFBO 060100Z AUTO 00000KT CAVOK 05/02 Q1016 NOSIG
01:30
V
6 °C 10 km+ - Var Var 2 kt METAR LFBO 060030Z AUTO VRB02KT CAVOK 06/02 Q1016 NOSIG
01:00
V
6 °C 10 km+ - Var Var 2 kt METAR LFBO 060000Z AUTO VRB02KT CAVOK 06/02 Q1016 NOSIG
00:30
V
7 °C 10 km+ - 140° 140° 4 kt METAR LFBO 052330Z AUTO 14004KT CAVOK 07/03 Q1016 NOSIG
00:00
V
7 °C 10 km+ - 150° 150° 7 kt METAR LFBO 052300Z AUTO 15007KT CAVOK 07/03 Q1016 NOSIG

5 de dezembro de 2022

Hora Código Clima Temp. Visibilidade Tecto Vento METAR/SPECI
23:30
V
8 °C 10 km+ - 160° 160° 4 kt METAR LFBO 052230Z AUTO 16004KT CAVOK 08/03 Q1016 NOSIG
23:00
V
8 °C 10 km+ - 120° 120° 7 kt METAR LFBO 052200Z AUTO 12007KT CAVOK 08/04 Q1016 NOSIG
22:30
V
8 °C 10 km+ - 130° 130° 6 kt METAR LFBO 052130Z AUTO 13006KT CAVOK 08/04 Q1016 NOSIG
22:00
V
8 °C 10 km+ - 140° 140° 7 kt METAR LFBO 052100Z AUTO 14007KT CAVOK 08/04 Q1017 NOSIG
21:30
V
8 °C 10 km+ - 130° 130° 7 kt METAR LFBO 052030Z AUTO 13007KT CAVOK 08/03 Q1016 NOSIG
21:00
V
8 °C 10 km+ 19.000 ft 130° 130° 7 kt METAR LFBO 052000Z AUTO 13007KT 9999 FEW008 BKN190 08/02 Q1016 NOSIG
20:30
V
8 °C 10 km+ - 120° 120° 8 kt METAR LFBO 051930Z AUTO 12008KT 090V150 CAVOK 08/01 Q1016 NOSIG
20:00
V
8 °C 10 km+ - 120° 120° 9 kt METAR LFBO 051900Z AUTO 12009KT CAVOK 08/02 Q1016 NOSIG
19:30
V
8 °C 10 km+ 20.000 ft 130° 130° 7 kt METAR LFBO 051830Z AUTO 13007KT 9999 FEW007 OVC200 08/02 Q1016 NOSIG
19:00
V
6 °C 10 km+ - 150° 150° 4 kt METAR LFBO 051800Z AUTO 15004KT CAVOK 06/03 Q1016 NOSIG
18:30
V
8 °C 10 km+ - 110° 110° 3 kt METAR LFBO 051730Z AUTO 11003KT CAVOK 08/03 Q1016 NOSIG
18:00
V
9 °C 10 km+ - 090° 090° 3 kt METAR LFBO 051700Z AUTO 09003KT CAVOK 09/04 Q1016 NOSIG
17:30
V
9 °C 10 km+ - 070° 070° 4 kt METAR LFBO 051630Z AUTO 07004KT CAVOK 09/04 Q1016 NOSIG
17:00
V
10 °C 10 km+ - 060° 060° 5 kt METAR LFBO 051600Z AUTO 06005KT CAVOK 10/04 Q1016 NOSIG
16:30
V
10 °C 10 km+ - 050° 050° 5 kt METAR LFBO 051530Z AUTO 05005KT 010V080 CAVOK 10/04 Q1016 NOSIG
16:00
V
11 °C 10 km+ - 060° 060° 5 kt METAR LFBO 051500Z AUTO 06005KT CAVOK 11/03 Q1016 NOSIG
15:30
V
11 °C 10 km+ - 050° 050° 5 kt METAR LFBO 051430Z AUTO 05005KT 010V080 CAVOK 11/03 Q1016 NOSIG
15:00
V
12 °C 10 km+ - 090° 090° 7 kt METAR LFBO 051400Z AUTO 09007KT 070V130 CAVOK 12/03 Q1016 NOSIG
14:30
V
12 °C 10 km+ - 120° 120° 7 kt METAR LFBO 051330Z AUTO 12007KT 080V140 9999 FEW007 12/03 Q1016 NOSIG
14:00
V
11 °C 10 km+ - 100° 100° 7 kt METAR LFBO 051300Z AUTO 10007KT 070V130 9999 FEW008 11/03 Q1016 NOSIG
13:30
V
10 °C 10 km+ - 090° 090° 5 kt METAR LFBO 051230Z AUTO 09005KT 050V110 CAVOK 10/03 Q1017 NOSIG
13:00
V
9 °C 10 km+ - 060° 060° 5 kt METAR LFBO 051200Z AUTO 06005KT 030V110 CAVOK 09/02 Q1017 NOSIG
12:30
V
8 °C 10 km+ - 080° 080° 4 kt METAR LFBO 051130Z AUTO 08004KT 050V130 CAVOK 08/02 Q1017 NOSIG
12:00
V
8 °C 10 km+ - 110° 110° 6 kt METAR LFBO 051100Z AUTO 11006KT 070V140 CAVOK 08/02 Q1018 NOSIG
11:30
V
7 °C 10 km+ - Var Var 3 kt METAR LFBO 051030Z AUTO VRB03KT CAVOK 07/01 Q1018 NOSIG
11:00
V
5 °C 10 km+ - 110° 110° 5 kt METAR LFBO 051000Z AUTO 11005KT CAVOK 05/01 Q1018 NOSIG

Nós e terceiros acompanhamos seu comportamento na internet em nosso site com cookies. Se você continuar, nós assumimos que você concorda com nosso política de cookies.